IBE1554 LEPA-LEMD
Flight info
| Callsign | IBE1554 |
|---|---|
| Flight time | 1h 2m |
| Altitude | 30000 |
| Route | EPAMA DCT PLANA DCT PRADO |
| Aircraft | A339/H-SADE1E2E3GHIJ3J5M1P2RWXY/LB2D1 |
Departure
| Time | 2026-05-06 16:28 |
|---|---|
| Airport | Palma de Mallorca Airport (LEPA) |
Arrival
| Time | 2026-05-06 17:31 |
|---|---|
| Airport | Adolfo Suárez Madrid–Barajas Airport (LEMD) |
| Time | Latitude | Longitude | Altitude | Speed | Heading |
|---|---|---|---|---|---|
| 2026-05-06 15:50 | 39.54950 | 2.73782 | 44 ft | 0 kts | 239° |
| 2026-05-06 16:14 | 39.54953 | 2.73787 | 43 ft | 2 kts | 239° |
| 2026-05-06 16:14 | 39.54959 | 2.73800 | 44 ft | 0 kts | 239° |
| 2026-05-06 16:14 | 39.54966 | 2.73814 | 44 ft | 2 kts | 230° |
| 2026-05-06 16:14 | 39.54976 | 2.73827 | 44 ft | 2 kts | 217° |
| 2026-05-06 16:15 | 39.54989 | 2.73838 | 45 ft | 2 kts | 205° |
| 2026-05-06 16:15 | 39.55003 | 2.73845 | 45 ft | 2 kts | 194° |
| 2026-05-06 16:15 | 39.55018 | 2.73848 | 45 ft | 2 kts | 181° |
| 2026-05-06 16:15 | 39.55032 | 2.73847 | 45 ft | 2 kts | 170° |
| 2026-05-06 16:16 | 39.55047 | 2.73843 | 45 ft | 2 kts | 159° |
| 2026-05-06 16:16 | 39.55058 | 2.73836 | 45 ft | 0 kts | 149° |
| 2026-05-06 16:16 | 39.55060 | 2.73834 | 45 ft | 0 kts | 148° |
| 2026-05-06 16:18 | 39.55059 | 2.73834 | 45 ft | 1 kts | 147° |
| 2026-05-06 16:18 | 39.55024 | 2.73865 | 45 ft | 9 kts | 147° |
| 2026-05-06 16:18 | 39.54956 | 2.73918 | 44 ft | 13 kts | 150° |
| 2026-05-06 16:19 | 39.54895 | 2.73966 | 43 ft | 9 kts | 149° |
| 2026-05-06 16:19 | 39.54842 | 2.73994 | 41 ft | 7 kts | 179° |
| 2026-05-06 16:19 | 39.54801 | 2.73962 | 41 ft | 6 kts | 230° |
| 2026-05-06 16:19 | 39.54762 | 2.73928 | 41 ft | 6 kts | 190° |
| 2026-05-06 16:20 | 39.54715 | 2.73927 | 41 ft | 6 kts | 199° |
| 2026-05-06 16:20 | 39.54679 | 2.73888 | 41 ft | 7 kts | 231° |
| 2026-05-06 16:20 | 39.54639 | 2.73814 | 41 ft | 12 kts | 235° |
| 2026-05-06 16:20 | 39.54585 | 2.73703 | 41 ft | 17 kts | 239° |
| 2026-05-06 16:21 | 39.54543 | 2.73673 | 41 ft | 6 kts | 144° |
| 2026-05-06 16:21 | 39.54510 | 2.73704 | 41 ft | 0 kts | 146° |
| 2026-05-06 16:21 | 39.54547 | 2.73621 | 41 ft | 0 kts | 241° |
| 2026-05-06 16:21 | 39.54542 | 2.73610 | 41 ft | 5 kts | 242° |
| 2026-05-06 16:22 | 39.54510 | 2.73539 | 41 ft | 12 kts | 239° |
| 2026-05-06 16:22 | 39.54455 | 2.73419 | 41 ft | 17 kts | 238° |
| 2026-05-06 16:22 | 39.54391 | 2.73286 | 40 ft | 17 kts | 238° |
| 2026-05-06 16:22 | 39.54343 | 2.73188 | 40 ft | 11 kts | 238° |
| 2026-05-06 16:23 | 39.54298 | 2.73092 | 39 ft | 13 kts | 240° |
| 2026-05-06 16:23 | 39.54247 | 2.72982 | 37 ft | 15 kts | 238° |
| 2026-05-06 16:23 | 39.54217 | 2.72942 | 36 ft | 0 kts | 213° |
| 2026-05-06 16:23 | 39.54212 | 2.72940 | 36 ft | 1 kts | 198° |
| 2026-05-06 16:24 | 39.54200 | 2.72937 | 36 ft | 2 kts | 187° |
| 2026-05-06 16:24 | 39.54175 | 2.72947 | 36 ft | 6 kts | 144° |
| 2026-05-06 16:24 | 39.54165 | 2.72969 | 36 ft | 0 kts | 111° |
| 2026-05-06 16:27 | 39.54163 | 2.72973 | 36 ft | 4 kts | 109° |
| 2026-05-06 16:27 | 39.54150 | 2.73084 | 38 ft | 16 kts | 95° |
| 2026-05-06 16:27 | 39.54160 | 2.73235 | 40 ft | 21 kts | 64° |
| 2026-05-06 16:27 | 39.54359 | 2.73665 | 41 ft | 99 kts | 64° |
| 2026-05-06 16:28 | 39.54863 | 2.74723 | 86 ft | 168 kts | 54° |
| 2026-05-06 16:28 | 39.55541 | 2.76121 | 424 ft | 202 kts | 61° |
| 2026-05-06 16:28 | 39.55941 | 2.78033 | 997 ft | 240 kts | 78° |
| 2026-05-06 16:28 | 39.56567 | 2.80125 | 1633 ft | 258 kts | 57° |
| 2026-05-06 16:29 | 39.57625 | 2.82001 | 2504 ft | 258 kts | 57° |
| 2026-05-06 16:29 | 39.58537 | 2.83926 | 3583 ft | 252 kts | 59° |
| 2026-05-06 16:29 | 39.59415 | 2.85796 | 4809 ft | 247 kts | 59° |
| 2026-05-06 16:29 | 39.60254 | 2.87636 | 6053 ft | 239 kts | 59° |
| 2026-05-06 16:30 | 39.61068 | 2.89472 | 7106 ft | 238 kts | 59° |
| 2026-05-06 16:30 | 39.61609 | 2.90707 | 7704 ft | 241 kts | 59° |
| 2026-05-06 16:30 | 39.62896 | 2.93057 | 8856 ft | 246 kts | 36° |
| 2026-05-06 16:30 | 39.64430 | 2.93910 | 9751 ft | 245 kts | 4° |
| 2026-05-06 16:31 | 39.65813 | 2.93745 | 10457 ft | 244 kts | 338° |
| 2026-05-06 16:31 | 39.66357 | 2.93434 | 10753 ft | 243 kts | 326° |
| 2026-05-06 16:31 | 39.67518 | 2.91908 | 11625 ft | 240 kts | 295° |
| 2026-05-06 16:31 | 39.67861 | 2.89870 | 12554 ft | 235 kts | 265° |
| 2026-05-06 16:32 | 39.67654 | 2.87778 | 13465 ft | 236 kts | 261° |
| 2026-05-06 16:32 | 39.67654 | 2.85677 | 14312 ft | 240 kts | 275° |
| 2026-05-06 16:32 | 39.67920 | 2.83554 | 15166 ft | 242 kts | 277° |
| 2026-05-06 16:32 | 39.68203 | 2.81334 | 15337 ft | 253 kts | 276° |
| 2026-05-06 16:33 | 39.68412 | 2.79135 | 15313 ft | 244 kts | 273° |
| 2026-05-06 16:33 | 39.68518 | 2.76886 | 15567 ft | 256 kts | 270° |
| 2026-05-06 16:33 | 39.68507 | 2.74666 | 16627 ft | 248 kts | 270° |
| 2026-05-06 16:34 | 39.70030 | 2.70316 | 17496 ft | 290 kts | 296° |
| 2026-05-06 16:34 | 39.70949 | 2.67937 | 17883 ft | 306 kts | 291° |
| 2026-05-06 16:34 | 39.71854 | 2.65345 | 17956 ft | 324 kts | 290° |
| 2026-05-06 16:34 | 39.72790 | 2.62576 | 18448 ft | 337 kts | 290° |
| 2026-05-06 16:35 | 39.73695 | 2.59885 | 19582 ft | 331 kts | 290° |
| 2026-05-06 16:35 | 39.74608 | 2.57152 | 20365 ft | 334 kts | 290° |
| 2026-05-06 16:35 | 39.75534 | 2.54376 | 21109 ft | 339 kts | 289° |
| 2026-05-06 16:35 | 39.76470 | 2.51567 | 21859 ft | 342 kts | 289° |
| 2026-05-06 16:36 | 39.77419 | 2.48724 | 22591 ft | 345 kts | 289° |
| 2026-05-06 16:36 | 39.78377 | 2.45842 | 23278 ft | 349 kts | 289° |
| 2026-05-06 16:36 | 39.79342 | 2.42939 | 23975 ft | 352 kts | 289° |
| 2026-05-06 16:36 | 39.80300 | 2.40055 | 24669 ft | 355 kts | 289° |
| 2026-05-06 16:37 | 39.81247 | 2.37202 | 25358 ft | 358 kts | 289° |
| 2026-05-06 16:37 | 39.82137 | 2.34300 | 26016 ft | 356 kts | 281° |
| 2026-05-06 16:37 | 39.82361 | 2.31229 | 26650 ft | 351 kts | 263° |
| 2026-05-06 16:37 | 39.81823 | 2.28191 | 27322 ft | 351 kts | 251° |
| 2026-05-06 16:38 | 39.81119 | 2.25155 | 27992 ft | 354 kts | 252° |
| 2026-05-06 16:38 | 39.80399 | 2.22080 | 28664 ft | 356 kts | 252° |
| 2026-05-06 16:38 | 39.79695 | 2.19080 | 29477 ft | 354 kts | 252° |
| 2026-05-06 16:38 | 39.78983 | 2.16059 | 30010 ft | 351 kts | 252° |
| 2026-05-06 16:39 | 39.78268 | 2.13024 | 29840 ft | 350 kts | 252° |
| 2026-05-06 16:39 | 39.77567 | 2.10053 | 29948 ft | 345 kts | 252° |
| 2026-05-06 16:39 | 39.76855 | 2.07040 | 29926 ft | 348 kts | 252° |
| 2026-05-06 16:40 | 39.75439 | 2.01048 | 29927 ft | 346 kts | 252° |
| 2026-05-06 16:40 | 39.74027 | 1.95094 | 29924 ft | 346 kts | 252° |
| 2026-05-06 16:41 | 39.72608 | 1.89132 | 29927 ft | 346 kts | 252° |
| 2026-05-06 16:41 | 39.71199 | 1.83220 | 29916 ft | 346 kts | 252° |
| 2026-05-06 16:42 | 39.69772 | 1.77249 | 29913 ft | 346 kts | 252° |
| 2026-05-06 16:42 | 39.68344 | 1.71291 | 29913 ft | 346 kts | 252° |
| 2026-05-06 16:43 | 39.66929 | 1.65397 | 29916 ft | 346 kts | 252° |
| 2026-05-06 16:43 | 39.65500 | 1.59463 | 29902 ft | 345 kts | 252° |
| 2026-05-06 16:44 | 39.64068 | 1.53531 | 29903 ft | 346 kts | 252° |
| 2026-05-06 16:44 | 39.62631 | 1.47597 | 29905 ft | 346 kts | 252° |
| 2026-05-06 16:45 | 39.61192 | 1.41663 | 29895 ft | 346 kts | 252° |
| 2026-05-06 16:45 | 39.60543 | 1.35569 | 29898 ft | 354 kts | 276° |
| 2026-05-06 16:46 | 39.61794 | 1.29360 | 29906 ft | 358 kts | 279° |
| 2026-05-06 16:46 | 39.62922 | 1.23153 | 29907 ft | 356 kts | 278° |
| 2026-05-06 16:47 | 39.64021 | 1.16910 | 29911 ft | 355 kts | 278° |
| 2026-05-06 16:47 | 39.65102 | 1.10708 | 29930 ft | 356 kts | 278° |
| 2026-05-06 16:48 | 39.66168 | 1.04566 | 29928 ft | 354 kts | 277° |
| 2026-05-06 16:48 | 39.67244 | 0.98343 | 29928 ft | 355 kts | 278° |
| 2026-05-06 16:49 | 39.68312 | 0.92142 | 29932 ft | 354 kts | 278° |
| 2026-05-06 16:49 | 39.69385 | 0.85888 | 29924 ft | 354 kts | 278° |
| 2026-05-06 16:50 | 39.70445 | 0.79703 | 29929 ft | 353 kts | 278° |
| 2026-05-06 16:50 | 39.71504 | 0.73494 | 29927 ft | 355 kts | 278° |
| 2026-05-06 16:51 | 39.72566 | 0.67246 | 29936 ft | 354 kts | 278° |
| 2026-05-06 16:51 | 39.73617 | 0.61039 | 29925 ft | 352 kts | 278° |
| 2026-05-06 16:52 | 39.74669 | 0.54809 | 29924 ft | 353 kts | 278° |
| 2026-05-06 16:52 | 39.75714 | 0.48599 | 29924 ft | 354 kts | 278° |
| 2026-05-06 16:53 | 39.76751 | 0.42409 | 29923 ft | 352 kts | 278° |
| 2026-05-06 16:53 | 39.77794 | 0.36167 | 29929 ft | 353 kts | 278° |
| 2026-05-06 16:54 | 39.78825 | 0.29971 | 29937 ft | 354 kts | 277° |
| 2026-05-06 16:54 | 39.79855 | 0.23762 | 29929 ft | 353 kts | 277° |
| 2026-05-06 16:55 | 39.80890 | 0.17509 | 29927 ft | 354 kts | 277° |
| 2026-05-06 16:55 | 39.81909 | 0.11314 | 29930 ft | 353 kts | 277° |
| 2026-05-06 16:56 | 39.82935 | 0.05067 | 29930 ft | 354 kts | 277° |
| 2026-05-06 16:56 | 39.83960 | -0.01195 | 29929 ft | 353 kts | 277° |
| 2026-05-06 16:57 | 39.84975 | -0.07428 | 29929 ft | 353 kts | 277° |
| 2026-05-06 16:57 | 39.85987 | -0.13658 | 29936 ft | 352 kts | 277° |
| 2026-05-06 16:58 | 39.86990 | -0.19866 | 29931 ft | 352 kts | 277° |
| 2026-05-06 16:58 | 39.87991 | -0.26075 | 29932 ft | 353 kts | 277° |
| 2026-05-06 16:59 | 39.88996 | -0.32323 | 29934 ft | 353 kts | 277° |
| 2026-05-06 16:59 | 39.90000 | -0.38584 | 29936 ft | 354 kts | 277° |
| 2026-05-06 17:00 | 39.90995 | -0.44822 | 29939 ft | 354 kts | 277° |
| 2026-05-06 17:00 | 39.91994 | -0.51113 | 29948 ft | 353 kts | 277° |
| 2026-05-06 17:01 | 39.92981 | -0.57334 | 29955 ft | 354 kts | 277° |
| 2026-05-06 17:01 | 39.93973 | -0.63624 | 29950 ft | 355 kts | 277° |
| 2026-05-06 17:02 | 39.94963 | -0.69916 | 29962 ft | 354 kts | 277° |
| 2026-05-06 17:02 | 39.95944 | -0.76176 | 29965 ft | 355 kts | 277° |
| 2026-05-06 17:03 | 39.96921 | -0.82428 | 29962 ft | 353 kts | 277° |
| 2026-05-06 17:03 | 39.97896 | -0.88693 | 29964 ft | 356 kts | 277° |
| 2026-05-06 17:04 | 39.98877 | -0.95024 | 29973 ft | 355 kts | 276° |
| 2026-05-06 17:04 | 39.99840 | -1.01272 | 29972 ft | 355 kts | 277° |
| 2026-05-06 17:05 | 40.00811 | -1.07586 | 29977 ft | 356 kts | 277° |
| 2026-05-06 17:05 | 40.01784 | -1.13925 | 29964 ft | 356 kts | 277° |
| 2026-05-06 17:06 | 40.02745 | -1.20231 | 29961 ft | 357 kts | 277° |
| 2026-05-06 17:06 | 40.03708 | -1.26567 | 29953 ft | 358 kts | 277° |
| 2026-05-06 17:07 | 40.04669 | -1.32908 | 29954 ft | 357 kts | 277° |
| 2026-05-06 17:07 | 40.05623 | -1.39240 | 29971 ft | 358 kts | 277° |
| 2026-05-06 17:08 | 40.06585 | -1.45626 | 29974 ft | 358 kts | 277° |
| 2026-05-06 17:08 | 40.07538 | -1.51998 | 29982 ft | 359 kts | 277° |
| 2026-05-06 17:09 | 40.08484 | -1.58344 | 29969 ft | 357 kts | 277° |
| 2026-05-06 17:09 | 40.09427 | -1.64697 | 29967 ft | 358 kts | 278° |
| 2026-05-06 17:10 | 40.10371 | -1.71075 | 29969 ft | 359 kts | 277° |
| 2026-05-06 17:10 | 40.11316 | -1.77486 | 29963 ft | 358 kts | 277° |
| 2026-05-06 17:11 | 40.12252 | -1.83871 | 29959 ft | 360 kts | 277° |
| 2026-05-06 17:11 | 40.13184 | -1.90248 | 29965 ft | 359 kts | 277° |
| 2026-05-06 17:12 | 40.14122 | -1.96695 | 29963 ft | 361 kts | 277° |
| 2026-05-06 17:12 | 40.15434 | -2.02998 | 29454 ft | 374 kts | 293° |
| 2026-05-06 17:12 | 40.16766 | -2.05961 | 28244 ft | 389 kts | 296° |
| 2026-05-06 17:13 | 40.18113 | -2.09053 | 26923 ft | 402 kts | 296° |
| 2026-05-06 17:13 | 40.19484 | -2.12256 | 25486 ft | 415 kts | 296° |
| 2026-05-06 17:13 | 40.20897 | -2.15582 | 24096 ft | 421 kts | 296° |
| 2026-05-06 17:13 | 40.22292 | -2.18884 | 22967 ft | 420 kts | 297° |
| 2026-05-06 17:14 | 40.23689 | -2.22195 | 21910 ft | 412 kts | 297° |
| 2026-05-06 17:14 | 40.25020 | -2.25355 | 20651 ft | 385 kts | 297° |
| 2026-05-06 17:14 | 40.26055 | -2.28466 | 18884 ft | 377 kts | 284° |
| 2026-05-06 17:14 | 40.26334 | -2.31768 | 16447 ft | 387 kts | 268° |
| 2026-05-06 17:15 | 40.26244 | -2.35182 | 14869 ft | 371 kts | 269° |
| 2026-05-06 17:15 | 40.26201 | -2.38433 | 13815 ft | 349 kts | 269° |
| 2026-05-06 17:15 | 40.26174 | -2.41444 | 13466 ft | 314 kts | 269° |
| 2026-05-06 17:15 | 40.26154 | -2.44218 | 13304 ft | 304 kts | 269° |
| 2026-05-06 17:16 | 40.26135 | -2.46982 | 13103 ft | 301 kts | 269° |
| 2026-05-06 17:16 | 40.26118 | -2.49680 | 13147 ft | 298 kts | 269° |
| 2026-05-06 17:16 | 40.26102 | -2.52274 | 13282 ft | 273 kts | 269° |
| 2026-05-06 17:16 | 40.26087 | -2.54646 | 13378 ft | 250 kts | 269° |
| 2026-05-06 17:17 | 40.26072 | -2.56892 | 13624 ft | 248 kts | 269° |
| 2026-05-06 17:17 | 40.26057 | -2.59156 | 13655 ft | 246 kts | 269° |
| 2026-05-06 17:17 | 40.26047 | -2.61396 | 13595 ft | 247 kts | 269° |
| 2026-05-06 17:17 | 40.26042 | -2.63606 | 13623 ft | 246 kts | 269° |
| 2026-05-06 17:18 | 40.26037 | -2.65852 | 13629 ft | 246 kts | 269° |
| 2026-05-06 17:18 | 40.26030 | -2.68088 | 13635 ft | 245 kts | 269° |
| 2026-05-06 17:18 | 40.26025 | -2.70320 | 13637 ft | 244 kts | 269° |
| 2026-05-06 17:18 | 40.26018 | -2.72545 | 13641 ft | 245 kts | 269° |
| 2026-05-06 17:19 | 40.26011 | -2.74756 | 13666 ft | 245 kts | 269° |
| 2026-05-06 17:19 | 40.26003 | -2.76992 | 13668 ft | 246 kts | 269° |
| 2026-05-06 17:19 | 40.25995 | -2.79242 | 13531 ft | 247 kts | 269° |
| 2026-05-06 17:19 | 40.25986 | -2.81480 | 13168 ft | 252 kts | 269° |
| 2026-05-06 17:20 | 40.25977 | -2.83787 | 12812 ft | 255 kts | 269° |
| 2026-05-06 17:20 | 40.25967 | -2.86133 | 12444 ft | 258 kts | 268° |
| 2026-05-06 17:20 | 40.25957 | -2.88493 | 12070 ft | 261 kts | 268° |
| 2026-05-06 17:20 | 40.25946 | -2.90841 | 11714 ft | 263 kts | 268° |
| 2026-05-06 17:21 | 40.25934 | -2.93266 | 11349 ft | 265 kts | 269° |
| 2026-05-06 17:21 | 40.25922 | -2.95670 | 10996 ft | 266 kts | 269° |
| 2026-05-06 17:21 | 40.25910 | -2.98072 | 10659 ft | 267 kts | 269° |
| 2026-05-06 17:21 | 40.25896 | -3.00497 | 10329 ft | 267 kts | 269° |
| 2026-05-06 17:22 | 40.25883 | -3.02923 | 10012 ft | 267 kts | 269° |
| 2026-05-06 17:22 | 40.25869 | -3.05352 | 9709 ft | 267 kts | 269° |
| 2026-05-06 17:22 | 40.25854 | -3.07771 | 9415 ft | 266 kts | 269° |
| 2026-05-06 17:22 | 40.25839 | -3.10201 | 9133 ft | 265 kts | 269° |
| 2026-05-06 17:23 | 40.25824 | -3.12591 | 8858 ft | 263 kts | 269° |
| 2026-05-06 17:23 | 40.26114 | -3.14908 | 8544 ft | 264 kts | 288° |
| 2026-05-06 17:23 | 40.26691 | -3.17211 | 8150 ft | 267 kts | 287° |
| 2026-05-06 17:23 | 40.27255 | -3.19523 | 7715 ft | 265 kts | 287° |
| 2026-05-06 17:24 | 40.27795 | -3.21750 | 7315 ft | 252 kts | 288° |
| 2026-05-06 17:24 | 40.28312 | -3.23879 | 6975 ft | 242 kts | 288° |
| 2026-05-06 17:24 | 40.28820 | -3.25975 | 6693 ft | 244 kts | 287° |
| 2026-05-06 17:24 | 40.29339 | -3.28121 | 6327 ft | 249 kts | 288° |
| 2026-05-06 17:25 | 40.29863 | -3.30292 | 6009 ft | 250 kts | 288° |
| 2026-05-06 17:25 | 40.30377 | -3.32418 | 5988 ft | 243 kts | 288° |
| 2026-05-06 17:25 | 40.30884 | -3.34518 | 5904 ft | 237 kts | 288° |
| 2026-05-06 17:25 | 40.31365 | -3.36511 | 5818 ft | 226 kts | 289° |
| 2026-05-06 17:26 | 40.32137 | -3.38213 | 5665 ft | 213 kts | 314° |
| 2026-05-06 17:26 | 40.33256 | -3.39416 | 5346 ft | 203 kts | 325° |
| 2026-05-06 17:26 | 40.34333 | -3.40488 | 5049 ft | 188 kts | 323° |
| 2026-05-06 17:26 | 40.35327 | -3.41493 | 4784 ft | 174 kts | 323° |
| 2026-05-06 17:27 | 40.36261 | -3.42440 | 4648 ft | 162 kts | 324° |
| 2026-05-06 17:27 | 40.37103 | -3.43281 | 4414 ft | 144 kts | 324° |
| 2026-05-06 17:27 | 40.37874 | -3.44055 | 4183 ft | 135 kts | 324° |
| 2026-05-06 17:27 | 40.38609 | -3.44795 | 4002 ft | 134 kts | 324° |
| 2026-05-06 17:28 | 40.39348 | -3.45538 | 3825 ft | 134 kts | 324° |
| 2026-05-06 17:28 | 40.40089 | -3.46284 | 3647 ft | 133 kts | 323° |
| 2026-05-06 17:28 | 40.40817 | -3.47019 | 3472 ft | 133 kts | 324° |
| 2026-05-06 17:28 | 40.41556 | -3.47766 | 3296 ft | 132 kts | 324° |
| 2026-05-06 17:29 | 40.42282 | -3.48499 | 3122 ft | 132 kts | 323° |
| 2026-05-06 17:29 | 40.43018 | -3.49243 | 2946 ft | 133 kts | 323° |
| 2026-05-06 17:29 | 40.43748 | -3.49980 | 2772 ft | 133 kts | 323° |
| 2026-05-06 17:29 | 40.44471 | -3.50711 | 2600 ft | 132 kts | 323° |
| 2026-05-06 17:30 | 40.45238 | -3.51501 | 2479 ft | 139 kts | 320° |
| 2026-05-06 17:30 | 40.45987 | -3.52275 | 2272 ft | 138 kts | 320° |
| 2026-05-06 17:30 | 40.46753 | -3.53020 | 2068 ft | 134 kts | 322° |
| 2026-05-06 17:30 | 40.47476 | -3.53746 | 1899 ft | 127 kts | 319° |
| 2026-05-06 17:31 | 40.48064 | -3.54344 | 1894 ft | 80 kts | 320° |
| 2026-05-06 17:31 | 40.48341 | -3.54627 | 1899 ft | 22 kts | 323° |
| 2026-05-06 17:31 | 40.48365 | -3.54653 | 1900 ft | 4 kts | 323° |
| 2026-05-06 17:31 | 40.48479 | -3.54766 | 1902 ft | 34 kts | 322° |
| 2026-05-06 17:32 | 40.48676 | -3.54972 | 1905 ft | 36 kts | 316° |
| 2026-05-06 17:32 | 40.48794 | -3.55195 | 1910 ft | 28 kts | 293° |
| 2026-05-06 17:32 | 40.48817 | -3.55268 | 1911 ft | 0 kts | 293° |
| 2026-05-06 17:32 | 40.48817 | -3.55270 | 1911 ft | 1 kts | 293° |
| 2026-05-06 17:33 | 40.48850 | -3.55370 | 1914 ft | 19 kts | 295° |
| 2026-05-06 17:33 | 40.48941 | -3.55513 | 1919 ft | 20 kts | 323° |
| 2026-05-06 17:33 | 40.49049 | -3.55624 | 1923 ft | 18 kts | 323° |
| 2026-05-06 17:33 | 40.49142 | -3.55716 | 1927 ft | 15 kts | 323° |
| 2026-05-06 17:34 | 40.49180 | -3.55755 | 1928 ft | 4 kts | 322° |
| 2026-05-06 17:34 | 40.49196 | -3.55772 | 1929 ft | 1 kts | 321° |
| 2026-05-06 17:34 | 40.49200 | -3.55776 | 1929 ft | 0 kts | 321° |
| 2026-05-06 17:35 | 40.49215 | -3.55791 | 1930 ft | 5 kts | 321° |
| 2026-05-06 17:35 | 40.49252 | -3.55831 | 1931 ft | 9 kts | 321° |
| 2026-05-06 17:35 | 40.49313 | -3.55897 | 1934 ft | 12 kts | 320° |
| 2026-05-06 17:36 | 40.49300 | -3.56105 | 1940 ft | 0 kts | 300° |
| 2026-05-06 17:36 | 40.49301 | -3.56123 | 1941 ft | 5 kts | 274° |
| 2026-05-06 17:36 | 40.49302 | -3.56182 | 1943 ft | 3 kts | 268° |
| 2026-05-06 17:36 | 40.49308 | -3.56220 | 1944 ft | 5 kts | 293° |
| 2026-05-06 17:37 | 40.49332 | -3.56279 | 1945 ft | 8 kts | 284° |
| 2026-05-06 17:37 | 40.49333 | -3.56322 | 1947 ft | 0 kts | 268° |
| 2026-05-06 17:37 | 40.49333 | -3.56332 | 1947 ft | 0 kts | 268° |